Time;durP1;ratioP1;P1;durP2;ratioP2;P2;SDS_P1;SDS_P2;PMS_P1;PMS_P2;Temp;Humidity;BMP_temperature;BMP_pressure;BME280_temperature;BME280_humidity;BME280_pressure;Samples;Min_cycle;Max_cycle;Signal;HPM_P1;HPM_P2
2022/08/21 04:03:11;;;;;;;;;;;;;;;14.85;61.90;98962.09;2610215;54;19989;-69
2022/08/21 04:05:41;;;;;;;;;;;;;;;14.89;61.44;98964.34;2617904;54;19947;-70
2022/08/21 04:08:10;;;;;;;;;;;;;;;14.83;61.52;98960.72;2617728;54;19954;-70
2022/08/21 04:10:40;;;;;;;;;;;;;;;14.76;61.71;98958.09;2617871;54;20414;-69
2022/08/21 04:13:10;;;;;;;;;;;;;;;14.69;61.82;98956.50;2617578;39;20338;-70
2022/08/21 04:15:40;;;;;;;;;;;;;;;14.68;61.76;98958.34;2618200;54;19938;-71
2022/08/21 04:18:12;;;;;;;;;;;;;;;14.71;61.74;98963.25;2618272;39;20323;-71
2022/08/21 04:20:43;;;;;;;;;;;;;;;14.52;62.29;98964.19;2618286;54;19946;-71
2022/08/21 04:23:18;;;;;;;;;;;;;;;14.48;62.33;98965.59;2617563;54;20441;-70
2022/08/21 04:25:52;;;;;;;;;;;;;;;14.59;62.23;98964.97;2618024;54;19973;-70
2022/08/21 04:28:22;;;;;;;;;;;;;;;14.53;62.18;98973.78;2617898;54;19946;-71
2022/08/21 04:30:57;;;;;;;;;;;;;;;14.51;62.48;98981.19;2617748;54;19947;-70
2022/08/21 04:33:29;;;;;;;;;;;;;;;14.45;62.79;98981.97;2618121;39;20360;-71
2022/08/21 04:35:58;;;;;;;;;;;;;;;14.46;62.41;98987.09;2617908;54;19938;-71
2022/08/21 04:38:31;;;;;;;;;;;;;;;14.52;62.60;98990.78;2617756;54;19954;-70
2022/08/21 04:41:06;;;;;;;;;;;;;;;14.62;62.72;98991.16;2618259;54;19954;-70
2022/08/21 04:43:36;;;;;;;;;;;;;;;14.47;62.88;98996.72;2618127;47;19954;-70
2022/08/21 04:46:05;;;;;;;;;;;;;;;14.54;63.31;98999.38;2617429;47;19950;-70
2022/08/21 04:48:37;;;;;;;;;;;;;;;14.74;62.64;98996.59;2617629;54;19943;-70
2022/08/21 04:51:10;;;;;;;;;;;;;;;14.95;62.03;99000.75;2618301;39;20361;-69
2022/08/21 04:53:42;;;;;;;;;;;;;;;15.07;62.15;98999.03;2617931;54;19969;-70
2022/08/21 04:56:13;;;;;;;;;;;;;;;15.17;61.87;98998.53;2617652;54;19939;-69
2022/08/21 04:58:43;;;;;;;;;;;;;;;15.09;61.58;98999.59;2617183;54;19939;-70
2022/08/21 05:01:15;;;;;;;;;;;;;;;15.01;61.78;99005.19;2617935;54;19954;-69
2022/08/21 05:03:49;;;;;;;;;;;;;;;14.93;62.26;99008.13;2617032;47;19939;-69
2022/08/21 05:06:19;;;;;;;;;;;;;;;14.97;62.22;99004.00;2618446;54;19946;-69
2022/08/21 05:08:50;;;;;;;;;;;;;;;14.93;61.76;99002.81;2618545;54;19946;-69
2022/08/21 05:11:30;;;;;;;;;;;;;;;14.85;62.09;99001.22;2618334;54;20062;-69
2022/08/21 05:13:59;;;;;;;;;;;;;;;14.98;62.12;99011.78;2618321;54;19939;-70
2022/08/21 05:16:29;;;;;;;;;;;;;;;15.00;62.00;98999.06;2618257;54;19946;-70
2022/08/21 05:19:08;;;;;;;;;;;;;;;15.01;61.86;99008.69;2618780;39;20349;-69
2022/08/21 05:21:40;;;;;;;;;;;;;;;14.97;62.09;99001.34;2618531;54;19946;-69
2022/08/21 05:24:10;;;;;;;;;;;;;;;14.92;61.78;99003.84;2618418;54;19969;-70
2022/08/21 05:26:39;;;;;;;;;;;;;;;14.78;61.93;99017.25;2618379;54;19954;-70
2022/08/21 05:29:15;;;;;;;;;;;;;;;14.81;62.21;99006.16;2618690;39;20330;-69
2022/08/21 05:31:44;;;;;;;;;;;;;;;14.88;62.67;99005.31;2618370;54;19946;-69
2022/08/21 05:34:17;;;;;;;;;;;;;;;14.97;61.91;99010.13;2618346;54;19945;-69
2022/08/21 05:36:47;;;;;;;;;;;;;;;15.09;62.03;99010.25;2618191;54;19969;-71
2022/08/21 05:39:16;;;;;;;;;;;;;;;15.24;61.99;99012.63;2618293;54;19938;-69
2022/08/21 05:41:47;;;;;;;;;;;;;;;15.24;61.42;99015.28;2618796;54;19970;-69
2022/08/21 05:44:16;;;;;;;;;;;;;;;15.22;61.53;99010.16;2617762;54;19939;-69
2022/08/21 05:46:48;;;;;;;;;;;;;;;15.30;61.35;99020.53;2618268;54;19946;-69
2022/08/21 05:49:22;;;;;;;;;;;;;;;15.33;61.56;99012.13;2618694;39;20303;-69
2022/08/21 05:51:51;;;;;;;;;;;;;;;15.42;60.95;99017.97;2618105;39;20334;-69
2022/08/21 05:54:20;;;;;;;;;;;;;;;15.60;61.21;99011.88;2618370;54;19939;-69
2022/08/21 05:56:50;;;;;;;;;;;;;;;15.71;60.92;99015.69;2618331;54;19954;-70
2022/08/21 05:59:19;;;;;;;;;;;;;;;15.88;60.42;99008.75;2618751;39;20321;-69
2022/08/21 06:01:49;;;;;;;;;;;;;;;16.01;59.97;99013.13;2618487;54;19938;-69
2022/08/21 06:04:22;;;;;;;;;;;;;;;16.05;59.93;99015.13;2623845;54;19945;-70
2022/08/21 06:06:51;;;;;;;;;;;;;;;16.13;59.71;99013.19;2624839;54;19939;-70
2022/08/21 06:09:20;;;;;;;;;;;;;;;16.26;59.76;99013.84;2624085;54;19946;-70
2022/08/21 06:11:50;;;;;;;;;;;;;;;16.43;58.93;99013.22;2620510;54;19939;-70
2022/08/21 06:14:19;;;;;;;;;;;;;;;16.57;58.87;99004.00;2617652;54;19939;-69
2022/08/21 06:16:48;;;;;;;;;;;;;;;16.57;58.24;99004.84;2617467;54;19953;-69
2022/08/21 06:19:18;;;;;;;;;;;;;;;16.53;58.20;99002.81;2618344;54;19938;-70
2022/08/21 06:21:50;;;;;;;;;;;;;;;16.65;58.24;99001.00;2619051;54;19942;-70
2022/08/21 06:24:19;;;;;;;;;;;;;;;16.65;58.13;98993.00;2618440;54;19958;-68
2022/08/21 06:26:49;;;;;;;;;;;;;;;16.75;57.83;99001.31;2618359;54;19951;-69
2022/08/21 06:29:19;;;;;;;;;;;;;;;16.90;57.74;99000.91;2617574;51;19957;-68
2022/08/21 06:31:49;;;;;;;;;;;;;;;17.08;57.40;98997.31;2618158;54;19946;-69
2022/08/21 06:34:19;;;;;;;;;;;;;;;17.12;56.96;98998.50;2617613;54;19939;-68
2022/08/21 06:36:51;;;;;;;;;;;;;;;17.12;56.71;98995.81;2617854;47;19938;-68
2022/08/21 06:39:21;;;;;;;;;;;;;;;17.13;57.09;98996.63;2618477;39;20323;-70
2022/08/21 06:41:54;;;;;;;;;;;;;;;17.25;57.09;98992.94;2618137;54;19954;-69
2022/08/21 06:44:30;;;;;;;;;;;;;;;17.27;56.31;98992.72;2617671;47;19954;-70
2022/08/21 06:46:59;;;;;;;;;;;;;;;17.34;56.41;98996.06;2618116;54;20469;-69
2022/08/21 06:49:28;;;;;;;;;;;;;;;17.38;55.80;98988.41;2618089;54;19945;-69
2022/08/21 06:52:00;;;;;;;;;;;;;;;17.46;56.11;98996.06;2617304;47;19946;-69
2022/08/21 06:54:30;;;;;;;;;;;;;;;17.53;55.47;98994.09;2618168;54;20438;-69
2022/08/21 06:56:59;;;;;;;;;;;;;;;17.66;55.88;98983.16;2617435;47;19969;-70
2022/08/21 06:59:29;;;;;;;;;;;;;;;17.85;55.52;98989.22;2617991;54;19939;-69
2022/08/21 07:01:58;;;;;;;;;;;;;;;18.05;55.46;98988.84;2617918;54;19954;-69
2022/08/21 07:04:28;;;;;;;;;;;;;;;18.10;54.44;98990.81;2617962;54;19973;-70
2022/08/21 07:06:57;;;;;;;;;;;;;;;18.24;54.29;98979.56;2617829;54;19939;-69
2022/08/21 07:09:29;;;;;;;;;;;;;;;18.24;53.37;98982.25;2617592;54;20457;-68
2022/08/21 07:11:59;;;;;;;;;;;;;;;18.25;53.69;98978.56;2618035;54;19954;-69
2022/08/21 07:14:28;;;;;;;;;;;;;;;18.38;53.37;98982.00;2618078;54;19946;-68
2022/08/21 07:16:57;;;;;;;;;;;;;;;18.44;53.16;98978.34;2618942;54;19957;-68
2022/08/21 07:19:27;;;;;;;;;;;;;;;18.53;53.46;98992.97;2624266;54;19946;-69
2022/08/21 07:22:00;;;;;;;;;;;;;;;18.69;52.78;98980.66;2624587;39;20614;-69
2022/08/21 07:24:32;;;;;;;;;;;;;;;18.79;52.54;98991.59;2622499;54;19947;-69
2022/08/21 07:27:01;;;;;;;;;;;;;;;18.90;52.51;98984.53;2622606;54;19946;-70
2022/08/21 07:29:35;;;;;;;;;;;;;;;19.00;51.79;98982.03;2619628;54;19998;-69
2022/08/21 07:32:04;;;;;;;;;;;;;;;19.06;51.25;98983.75;2617902;54;19939;-69
2022/08/21 07:34:34;;;;;;;;;;;;;;;19.10;51.32;98982.19;2617790;54;19938;-68
2022/08/21 07:37:03;;;;;;;;;;;;;;;19.21;51.29;98984.00;2617878;54;19953;-69
2022/08/21 07:39:40;;;;;;;;;;;;;;;19.31;51.19;98980.69;2617953;54;19939;-69
2022/08/21 07:42:10;;;;;;;;;;;;;;;19.45;50.91;98976.59;2617840;54;20074;-69
2022/08/21 07:44:39;;;;;;;;;;;;;;;19.59;50.48;98976.22;2617949;54;19947;-68
2022/08/21 07:47:09;;;;;;;;;;;;;;;19.74;50.75;98971.13;2617952;54;19939;-69
2022/08/21 07:49:38;;;;;;;;;;;;;;;19.84;50.32;98976.63;2617935;54;20437;-69
2022/08/21 07:52:07;;;;;;;;;;;;;;;19.98;49.76;98975.19;2618051;54;19953;-69
2022/08/21 07:54:37;;;;;;;;;;;;;;;20.13;49.26;98969.19;2617900;54;19939;-69
2022/08/21 07:57:09;;;;;;;;;;;;;;;20.36;49.09;98972.66;2617929;54;19946;-69
2022/08/21 07:59:38;;;;;;;;;;;;;;;20.53;48.59;98965.34;2618332;39;20315;-69
2022/08/21 08:02:08;;;;;;;;;;;;;;;20.64;48.18;98966.25;2617848;54;19947;-69
2022/08/21 08:04:37;;;;;;;;;;;;;;;20.73;47.71;98968.22;2618071;54;19939;-69
2022/08/21 08:07:19;;;;;;;;;;;;;;;20.76;47.10;98962.34;2617855;54;20029;-69
2022/08/21 08:09:48;;;;;;;;;;;;;;;20.91;47.10;98963.56;2617304;47;19946;-69
2022/08/21 08:12:20;;;;;;;;;;;;;;;21.09;45.75;98960.47;2621550;39;20322;-69
2022/08/21 08:14:50;;;;;;;;;;;;;;;21.18;45.71;98955.44;2622926;54;19939;-69
2022/08/21 08:17:21;;;;;;;;;;;;;;;21.28;45.69;98950.94;2618253;47;19938;-70
2022/08/21 08:19:51;;;;;;;;;;;;;;;21.41;45.69;98949.72;2618524;54;19947;-71
2022/08/21 08:22:23;;;;;;;;;;;;;;;21.54;45.59;98936.88;2618431;54;19947;-70
2022/08/21 08:24:53;;;;;;;;;;;;;;;21.62;45.21;98939.06;2618289;54;19973;-71
2022/08/21 08:27:25;;;;;;;;;;;;;;;21.74;44.79;98942.34;2618238;54;19970;-71
2022/08/21 08:29:55;;;;;;;;;;;;;;;21.85;43.85;98937.84;2619124;54;19947;-70
2022/08/21 08:32:24;;;;;;;;;;;;;;;21.92;43.82;98933.00;2621724;54;19951;-71
2022/08/21 08:34:54;;;;;;;;;;;;;;;22.02;43.62;98930.38;2626517;54;19939;-71
2022/08/21 08:37:23;;;;;;;;;;;;;;;22.06;43.01;98925.25;2626482;54;19947;-70
2022/08/21 08:40:03;;;;;;;;;;;;;;;22.25;42.84;98931.81;2625864;54;19946;-70
2022/08/21 08:42:37;;;;;;;;;;;;;;;22.40;42.00;98925.63;2619886;54;19977;-72
2022/08/21 08:45:08;;;;;;;;;;;;;;;22.49;41.59;98915.94;2619272;54;19939;-70
2022/08/21 08:47:40;;;;;;;;;;;;;;;22.51;42.48;98911.13;2619053;54;19946;-70
2022/08/21 08:50:11;;;;;;;;;;;;;;;22.66;41.27;98915.72;2619340;54;19957;-71
2022/08/21 08:52:45;;;;;;;;;;;;;;;22.68;41.76;98908.97;2619094;54;19939;-73
2022/08/21 08:55:16;;;;;;;;;;;;;;;22.83;40.85;98910.06;2618812;54;19939;-72
2022/08/21 08:57:50;;;;;;;;;;;;;;;22.94;40.74;98911.69;2617917;54;19950;-71
2022/08/21 09:00:21;;;;;;;;;;;;;;;22.98;40.90;98902.81;2618269;39;20322;-71
2022/08/21 09:02:54;;;;;;;;;;;;;;;23.13;40.38;98903.84;2617941;47;19939;-71
2022/08/21 09:05:25;;;;;;;;;;;;;;;23.23;39.53;98906.53;2618040;47;19950;-71
2022/08/21 09:08:00;;;;;;;;;;;;;;;23.27;39.80;98915.72;2618754;39;20346;-71
2022/08/21 09:10:33;;;;;;;;;;;;;;;23.48;39.85;98914.56;2618665;54;19938;-71
2022/08/21 09:13:08;;;;;;;;;;;;;;;23.61;38.95;98910.47;2618425;54;19946;-72
2022/08/21 09:15:42;;;;;;;;;;;;;;;23.70;38.78;98911.56;2618592;54;19939;-70
2022/08/21 09:18:21;;;;;;;;;;;;;;;23.82;38.66;98908.53;2618469;54;19958;-72
2022/08/21 09:20:58;;;;;;;;;;;;;;;23.94;38.16;98906.31;2618638;54;19946;-71
2022/08/21 09:23:32;;;;;;;;;;;;;;;23.94;37.02;98906.31;2618547;54;19946;-71
2022/08/21 09:26:04;;;;;;;;;;;;;;;23.91;37.61;98912.28;2618307;54;19939;-71
2022/08/21 09:28:37;;;;;;;;;;;;;;;23.94;37.52;98902.81;2618854;39;20357;-71
2022/08/21 09:31:09;;;;;;;;;;;;;;;24.09;37.73;98905.44;2618084;46;19947;-70
2022/08/21 09:33:38;;;;;;;;;;;;;;;24.12;37.07;98904.06;2618879;54;20643;-70
2022/08/21 09:36:08;;;;;;;;;;;;;;;24.13;36.99;98903.00;2618480;47;19945;-68
2022/08/21 09:38:39;;;;;;;;;;;;;;;23.99;37.22;98897.38;2619783;39;20322;-72
2022/08/21 09:41:10;;;;;;;;;;;;;;;24.05;36.85;98899.00;2619848;54;20434;-71
2022/08/21 09:43:42;;;;;;;;;;;;;;;24.15;36.67;98893.50;2620101;54;19939;-69
2022/08/21 09:46:13;;;;;;;;;;;;;;;24.29;36.68;98890.19;2618765;47;19942;-70
2022/08/21 09:48:47;;;;;;;;;;;;;;;24.44;37.21;98882.81;2618177;47;20414;-70
2022/08/21 09:51:18;;;;;;;;;;;;;;;24.65;35.15;98882.66;2618052;47;20474;-70
2022/08/21 09:53:50;;;;;;;;;;;;;;;24.48;35.33;98882.25;2618933;39;20341;-71
2022/08/21 09:59:14;;;;;;;;;;;;;;;24.60;35.25;98880.00;2619437;54;19950;-69
2022/08/21 10:01:45;;;;;;;;;;;;;;;24.59;35.25;98868.41;2618940;54;19953;-70
2022/08/21 10:04:15;;;;;;;;;;;;;;;24.60;35.04;98874.59;2618224;54;19942;-70
2022/08/21 10:06:45;;;;;;;;;;;;;;;24.60;34.79;98866.50;2618791;39;20334;-70
2022/08/21 10:09:15;;;;;;;;;;;;;;;24.61;35.04;98870.81;2618611;54;19954;-68
2022/08/21 10:11:55;;;;;;;;;;;;;;;24.69;34.96;98872.91;2618297;54;20046;-69
2022/08/21 10:14:36;;;;;;;;;;;;;;;24.76;34.96;98861.75;2618415;54;20438;-69
2022/08/21 10:17:11;;;;;;;;;;;;;;;24.90;34.97;98862.69;2618046;31;20395;-70
2022/08/21 10:19:46;;;;;;;;;;;;;;;24.92;33.83;98850.53;2618452;39;20333;-70
2022/08/21 10:22:21;;;;;;;;;;;;;;;24.86;33.60;98859.78;2618269;54;19952;-71
2022/08/21 10:24:55;;;;;;;;;;;;;;;24.80;34.08;98852.00;2618042;54;19946;-70
2022/08/21 10:27:30;;;;;;;;;;;;;;;24.82;34.28;98853.34;2617882;54;19962;-70
2022/08/21 10:30:04;;;;;;;;;;;;;;;24.93;34.57;98848.63;2618106;54;19946;-69
2022/08/21 10:32:43;;;;;;;;;;;;;;;24.93;34.09;98854.03;2617936;46;19946;-69
2022/08/21 10:35:15;;;;;;;;;;;;;;;25.02;34.22;98855.00;2618989;54;19947;-71
2022/08/21 10:37:51;;;;;;;;;;;;;;;25.11;34.32;98853.34;2619682;39;20346;-73
2022/08/21 10:40:24;;;;;;;;;;;;;;;25.17;33.62;98854.09;2618604;54;19938;-69
2022/08/21 10:43:01;;;;;;;;;;;;;;;25.28;33.68;98847.47;2617874;39;20383;-71
2022/08/21 10:45:40;;;;;;;;;;;;;;;25.42;33.44;98842.97;2618255;54;19946;-74
2022/08/21 10:48:15;;;;;;;;;;;;;;;25.40;33.21;98844.38;2617974;54;19943;-72
2022/08/21 10:50:47;;;;;;;;;;;;;;;25.48;32.63;98841.03;2618546;54;19970;-72
2022/08/21 10:53:24;;;;;;;;;;;;;;;25.65;32.85;98838.63;2618574;54;19946;-73
2022/08/21 10:55:57;;;;;;;;;;;;;;;25.64;32.42;98833.53;2619356;54;19943;-72
2022/08/21 10:58:29;;;;;;;;;;;;;;;25.72;32.62;98832.88;2624003;54;19938;-72
2022/08/21 11:01:06;;;;;;;;;;;;;;;25.93;32.45;98825.31;2624575;54;19938;-71
2022/08/21 11:03:38;;;;;;;;;;;;;;;26.23;31.61;98824.03;2624259;54;19997;-72
2022/08/21 11:06:11;;;;;;;;;;;;;;;26.26;30.94;98823.44;2624486;54;19958;-73
2022/08/21 11:08:42;;;;;;;;;;;;;;;26.34;30.89;98820.06;2624264;54;19939;-71
2022/08/21 11:11:15;;;;;;;;;;;;;;;26.37;30.97;98813.25;2619235;54;19946;-71
2022/08/21 11:13:52;;;;;;;;;;;;;;;26.54;30.13;98804.63;2618429;54;19954;-71
2022/08/21 11:16:28;;;;;;;;;;;;;;;26.57;29.91;98804.00;2618254;54;19962;-71
2022/08/21 11:19:01;;;;;;;;;;;;;;;26.55;29.82;98804.31;2618194;54;19951;-73
2022/08/21 11:21:34;;;;;;;;;;;;;;;26.49;29.54;98807.38;2618181;54;19973;-71
2022/08/21 11:24:06;;;;;;;;;;;;;;;26.45;29.58;98809.88;2618088;54;19957;-70
2022/08/21 11:26:38;;;;;;;;;;;;;;;26.43;30.13;98801.22;2617666;47;19946;-71
2022/08/21 11:29:11;;;;;;;;;;;;;;;26.57;29.77;98793.16;2618205;54;19939;-72
2022/08/21 11:31:50;;;;;;;;;;;;;;;26.79;29.66;98792.50;2617431;51;19946;-72
2022/08/21 11:34:25;;;;;;;;;;;;;;;26.89;29.53;98793.09;2617504;54;19943;-73
2022/08/21 11:37:01;;;;;;;;;;;;;;;26.79;28.96;98789.78;2617947;54;19947;-72
2022/08/21 11:39:37;;;;;;;;;;;;;;;26.93;29.25;98790.59;2618118;54;19974;-73
2022/08/21 11:42:24;;;;;;;;;;;;;;;27.00;28.30;98788.31;2617832;54;19994;-73
2022/08/21 11:44:58;;;;;;;;;;;;;;;27.08;28.35;98790.31;2618247;54;19939;-71
2022/08/21 11:47:35;;;;;;;;;;;;;;;26.93;26.96;98788.69;2618184;54;20030;-71
2022/08/21 11:50:09;;;;;;;;;;;;;;;26.95;27.47;98782.19;2617946;54;19947;-71
2022/08/21 11:53:02;;;;;;;;;;;;;;;26.86;27.30;98777.47;2618589;39;20441;-71
2022/08/21 11:55:34;;;;;;;;;;;;;;;26.97;27.51;98775.34;2618491;54;19950;-70
2022/08/21 11:58:09;;;;;;;;;;;;;;;26.88;26.68;98777.94;2617062;54;19946;-67
2022/08/21 12:00:41;;;;;;;;;;;;;;;26.58;27.04;98775.81;2618017;54;19945;-71
2022/08/21 12:03:15;;;;;;;;;;;;;;;26.50;26.62;98782.72;2618373;54;19939;-71
2022/08/21 12:05:54;;;;;;;;;;;;;;;26.22;27.36;98778.28;2617799;54;19938;-71
2022/08/21 12:08:30;;;;;;;;;;;;;;;26.19;27.64;98772.34;2617665;54;19946;-72
2022/08/21 12:11:05;;;;;;;;;;;;;;;26.47;27.65;98767.03;2617860;54;20462;-72
2022/08/21 12:13:35;;;;;;;;;;;;;;;26.66;27.45;98767.00;2618300;39;20349;-71
2022/08/21 12:16:12;;;;;;;;;;;;;;;26.86;27.25;98763.06;2618991;39;20296;-71
2022/08/21 12:18:45;;;;;;;;;;;;;;;27.05;27.65;98765.69;2618124;47;19946;-72
2022/08/21 12:21:26;;;;;;;;;;;;;;;27.27;27.61;98768.53;2618044;47;19973;-70
2022/08/21 12:24:03;;;;;;;;;;;;;;;27.49;27.07;98761.56;2618965;39;20319;-68
2022/08/21 12:26:34;;;;;;;;;;;;;;;27.43;26.87;98758.13;2618595;54;19965;-72
2022/08/21 12:29:09;;;;;;;;;;;;;;;27.54;26.58;98756.81;2618668;54;19939;-68
2022/08/21 12:31:49;;;;;;;;;;;;;;;27.56;26.77;98753.81;2618424;54;19939;-69
2022/08/21 12:34:22;;;;;;;;;;;;;;;27.50;26.50;98747.69;2618671;54;19977;-70
2022/08/21 12:36:55;;;;;;;;;;;;;;;27.47;27.07;98756.41;2618555;54;19939;-69
2022/08/21 12:39:26;;;;;;;;;;;;;;;27.72;27.17;98754.25;2618632;54;19954;-70
2022/08/21 12:41:58;;;;;;;;;;;;;;;27.89;27.00;98747.09;2618671;54;19939;-72
2022/08/21 12:44:34;;;;;;;;;;;;;;;27.96;26.18;98748.56;2618187;47;19985;-70
2022/08/21 12:47:05;;;;;;;;;;;;;;;27.91;26.31;98752.22;2618572;39;20338;-70
2022/08/21 12:49:39;;;;;;;;;;;;;;;27.87;26.71;98751.22;2618733;54;19946;-71
2022/08/21 12:52:13;;;;;;;;;;;;;;;27.92;26.42;98747.56;2618630;54;19951;-71
2022/08/21 12:54:44;;;;;;;;;;;;;;;27.92;26.07;98753.81;2618683;54;19954;-69
2022/08/21 12:57:21;;;;;;;;;;;;;;;27.98;25.64;98740.94;2618950;54;19939;-69
2022/08/21 12:59:54;;;;;;;;;;;;;;;28.08;25.27;98740.66;2618129;54;19989;-68
2022/08/21 13:02:26;;;;;;;;;;;;;;;28.21;25.12;98741.69;2618627;54;19954;-69
2022/08/21 13:04:58;;;;;;;;;;;;;;;28.29;25.50;98743.66;2618923;54;19947;-69
2022/08/21 13:07:30;;;;;;;;;;;;;;;28.48;25.62;98736.16;2619383;54;19947;-69
2022/08/21 13:10:02;;;;;;;;;;;;;;;28.54;25.60;98734.13;2619611;54;19969;-69
2022/08/21 13:12:33;;;;;;;;;;;;;;;28.63;25.45;98732.22;2621537;54;19954;-70
2022/08/21 13:15:04;;;;;;;;;;;;;;;28.78;24.95;98739.16;2620524;54;19939;-69
2022/08/21 13:17:39;;;;;;;;;;;;;;;28.92;24.60;98736.34;2619450;54;19946;-70
2022/08/21 13:20:12;;;;;;;;;;;;;;;28.93;23.68;98735.22;2619637;54;19946;-70
2022/08/21 13:22:45;;;;;;;;;;;;;;;28.57;24.05;98741.63;2619548;54;19947;-70
2022/08/21 13:25:16;;;;;;;;;;;;;;;28.74;24.59;98736.28;2619758;54;19939;-69
2022/08/21 13:27:47;;;;;;;;;;;;;;;28.67;24.25;98733.22;2618851;46;19946;-71
2022/08/21 13:30:21;;;;;;;;;;;;;;;28.52;24.71;98723.53;2619831;54;20457;-70
2022/08/21 13:32:53;;;;;;;;;;;;;;;28.36;23.88;98712.25;2619192;54;19946;-69
2022/08/21 13:35:30;;;;;;;;;;;;;;;28.23;24.16;98712.31;2619027;54;20550;-69
2022/08/21 13:38:02;;;;;;;;;;;;;;;28.28;24.97;98710.25;2618797;54;19945;-69
2022/08/21 13:40:44;;;;;;;;;;;;;;;28.47;24.74;98714.72;2618993;54;19946;-69
2022/08/21 13:43:15;;;;;;;;;;;;;;;28.52;24.55;98715.38;2619713;54;19950;-72
2022/08/21 13:45:50;;;;;;;;;;;;;;;28.71;24.67;98706.19;2621939;54;19986;-69
2022/08/21 13:48:20;;;;;;;;;;;;;;;28.86;24.65;98705.72;2621937;46;19950;-70
2022/08/21 13:50:53;;;;;;;;;;;;;;;28.91;24.17;98702.09;2622688;54;19946;-69
2022/08/21 13:53:24;;;;;;;;;;;;;;;28.97;24.00;98698.94;2621581;54;19947;-70
2022/08/21 13:55:53;;;;;;;;;;;;;;;29.11;24.14;98696.91;2620985;47;19942;-71
2022/08/21 13:58:29;;;;;;;;;;;;;;;29.25;24.34;98695.94;2622635;54;19951;-70
2022/08/21 14:01:00;;;;;;;;;;;;;;;29.43;23.55;98692.09;2619751;52;19958;-71
2022/08/21 14:03:35;;;;;;;;;;;;;;;29.59;23.72;98681.56;2619077;54;19953;-71
2022/08/21 14:06:13;;;;;;;;;;;;;;;29.69;23.54;98677.75;2619373;39;20037;-72
2022/08/21 14:08:43;;;;;;;;;;;;;;;29.82;23.35;98682.22;2618640;54;19945;-71
2022/08/21 14:11:14;;;;;;;;;;;;;;;29.88;23.21;98683.63;2618324;54;19939;-71
2022/08/21 14:13:44;;;;;;;;;;;;;;;29.90;23.30;98684.13;2618472;54;19947;-71
2022/08/21 14:16:17;;;;;;;;;;;;;;;29.95;23.23;98673.03;2618179;54;19973;-71
2022/08/21 14:18:51;;;;;;;;;;;;;;;29.82;23.03;98680.28;2617632;54;19966;-71
2022/08/21 14:21:32;;;;;;;;;;;;;;;29.54;23.27;98671.63;2618405;54;19945;-71
2022/08/21 14:24:02;;;;;;;;;;;;;;;29.26;23.17;98668.41;2618528;54;19997;-71
2022/08/21 14:26:32;;;;;;;;;;;;;;;29.31;23.86;98673.72;2618308;54;19958;-71
2022/08/21 14:29:02;;;;;;;;;;;;;;;29.50;24.02;98669.84;2618384;54;19939;-71
2022/08/21 14:31:39;;;;;;;;;;;;;;;29.51;23.62;98658.63;2618448;54;19989;-71
2022/08/21 14:34:13;;;;;;;;;;;;;;;29.42;23.36;98659.75;2618584;54;20329;-70
2022/08/21 14:36:50;;;;;;;;;;;;;;;29.44;23.64;98661.06;2618121;54;20034;-70
2022/08/21 14:39:20;;;;;;;;;;;;;;;29.55;23.67;98651.41;2618551;54;19954;-71
2022/08/21 14:41:50;;;;;;;;;;;;;;;29.53;23.32;98661.06;2618575;54;20395;-72
2022/08/21 14:44:20;;;;;;;;;;;;;;;29.46;23.20;98658.00;2619151;54;19939;-72
2022/08/21 14:46:49;;;;;;;;;;;;;;;29.59;22.53;98654.34;2618694;54;19942;-71
2022/08/21 14:49:25;;;;;;;;;;;;;;;29.65;23.08;98649.53;2618985;54;19953;-70
2022/08/21 14:51:59;;;;;;;;;;;;;;;29.84;22.90;98647.25;2617848;47;19939;-70
2022/08/21 14:54:29;;;;;;;;;;;;;;;29.99;22.79;98651.41;2618799;54;19947;-70
2022/08/21 14:57:01;;;;;;;;;;;;;;;30.01;22.77;98647.25;2618149;47;19945;-71
2022/08/21 14:59:31;;;;;;;;;;;;;;;30.10;22.61;98639.81;2618488;54;19958;-70
2022/08/21 15:02:01;;;;;;;;;;;;;;;30.20;22.41;98643.34;2618611;54;19947;-72
2022/08/21 15:04:30;;;;;;;;;;;;;;;30.30;22.79;98638.34;2618699;54;19938;-72
2022/08/21 15:07:02;;;;;;;;;;;;;;;30.33;21.97;98647.78;2618229;54;19946;-72
2022/08/21 15:09:31;;;;;;;;;;;;;;;30.16;21.91;98650.56;2619107;39;20330;-72
2022/08/21 15:12:02;;;;;;;;;;;;;;;30.31;21.86;98650.06;2618654;54;20430;-71
2022/08/21 15:14:33;;;;;;;;;;;;;;;30.38;21.37;98650.34;2618863;54;19961;-72
2022/08/21 15:17:03;;;;;;;;;;;;;;;30.48;21.50;98654.63;2618347;54;19966;-73
2022/08/21 15:19:32;;;;;;;;;;;;;;;30.46;21.39;98644.06;2619177;54;19939;-72
2022/08/21 15:22:05;;;;;;;;;;;;;;;30.43;21.15;98655.63;2619389;54;20007;-72
2022/08/21 15:24:43;;;;;;;;;;;;;;;30.40;21.50;98641.84;2621269;54;19954;-71
2022/08/21 15:27:14;;;;;;;;;;;;;;;30.26;21.32;98639.34;2623826;54;19945;-72
2022/08/21 15:29:44;;;;;;;;;;;;;;;30.13;21.32;98635.66;2622377;54;19947;-72
2022/08/21 15:32:19;;;;;;;;;;;;;;;30.12;20.89;98625.88;2619624;54;19954;-69
2022/08/21 15:34:49;;;;;;;;;;;;;;;29.99;20.58;98624.94;2619239;54;19958;-69
2022/08/21 15:37:21;;;;;;;;;;;;;;;29.84;20.95;98628.19;2619730;54;19954;-70
2022/08/21 15:39:51;;;;;;;;;;;;;;;30.02;21.41;98631.69;2618393;54;19946;-70
2022/08/21 15:42:22;;;;;;;;;;;;;;;30.24;21.12;98633.38;2618493;54;19946;-70
2022/08/21 15:44:52;;;;;;;;;;;;;;;30.38;20.58;98623.09;2617890;47;20643;-70
2022/08/21 15:47:24;;;;;;;;;;;;;;;30.48;20.66;98624.63;2618555;54;19947;-72
2022/08/21 15:49:54;;;;;;;;;;;;;;;30.49;20.45;98631.69;2618671;54;20457;-71
2022/08/21 15:52:26;;;;;;;;;;;;;;;30.51;20.57;98616.59;2618795;54;19946;-70
2022/08/21 15:54:55;;;;;;;;;;;;;;;30.52;20.00;98620.13;2619243;54;19946;-69
2022/08/21 15:57:25;;;;;;;;;;;;;;;30.37;20.42;98618.75;2618799;54;19946;-70
2022/08/21 15:59:56;;;;;;;;;;;;;;;30.27;20.56;98619.13;2619000;54;19969;-69
2022/08/21 16:02:28;;;;;;;;;;;;;;;30.18;20.80;98613.69;2619150;54;19973;-68
2022/08/21 16:04:57;;;;;;;;;;;;;;;30.33;20.85;98617.78;2619165;54;19977;-69
2022/08/21 16:07:30;;;;;;;;;;;;;;;30.62;20.81;98610.75;2619412;54;19970;-69
2022/08/21 16:09:59;;;;;;;;;;;;;;;30.74;20.10;98610.88;2620483;54;19946;-69
2022/08/21 16:12:30;;;;;;;;;;;;;;;30.74;20.29;98611.69;2619223;54;19954;-70
2022/08/21 16:15:00;;;;;;;;;;;;;;;30.84;20.18;98607.78;2618176;54;20421;-66
2022/08/21 16:17:31;;;;;;;;;;;;;;;30.58;20.22;98608.72;2618926;54;19954;-66
2022/08/21 16:20:02;;;;;;;;;;;;;;;30.51;20.26;98607.63;2620001;54;19939;-66
2022/08/21 16:22:34;;;;;;;;;;;;;;;30.45;20.22;98598.00;2619266;47;19957;-66
2022/08/21 16:25:13;;;;;;;;;;;;;;;30.31;20.36;98604.50;2620121;31;20510;-67
2022/08/21 16:27:43;;;;;;;;;;;;;;;30.20;20.88;98605.97;2619956;47;20029;-67
2022/08/21 16:30:14;;;;;;;;;;;;;;;30.19;20.57;98600.88;2620179;54;19950;-66
2022/08/21 16:32:43;;;;;;;;;;;;;;;30.19;20.74;98598.94;2618968;54;19947;-67
2022/08/21 16:35:14;;;;;;;;;;;;;;;30.53;20.71;98592.50;2618657;54;19965;-66
2022/08/21 16:37:47;;;;;;;;;;;;;;;30.72;20.41;98594.81;2618461;54;19954;-66
2022/08/21 16:40:21;;;;;;;;;;;;;;;30.78;20.60;98599.00;2618760;54;19939;-66
2022/08/21 16:42:52;;;;;;;;;;;;;;;30.73;20.43;98599.16;2618732;54;19947;-65
2022/08/21 16:45:22;;;;;;;;;;;;;;;30.62;20.53;98592.47;2619074;54;20038;-65
2022/08/21 16:47:51;;;;;;;;;;;;;;;30.54;20.78;98596.84;2618453;54;19939;-65
2022/08/21 16:50:24;;;;;;;;;;;;;;;30.46;20.26;98592.25;2618700;54;20434;-66
2022/08/21 16:52:56;;;;;;;;;;;;;;;30.08;21.04;98594.94;2618347;54;19953;-67
2022/08/21 16:55:26;;;;;;;;;;;;;;;29.83;21.34;98591.16;2618789;54;20476;-67
2022/08/21 16:57:55;;;;;;;;;;;;;;;29.53;21.28;98585.59;2618237;54;19942;-66
2022/08/21 17:00:25;;;;;;;;;;;;;;;29.47;21.44;98588.81;2619091;54;19946;-66
2022/08/21 17:02:56;;;;;;;;;;;;;;;29.28;21.45;98584.50;2620532;39;20334;-66
2022/08/21 17:05:25;;;;;;;;;;;;;;;29.18;21.72;98587.53;2619563;54;19945;-66
2022/08/21 17:07:57;;;;;;;;;;;;;;;29.02;21.55;98592.66;2619564;54;20453;-65
2022/08/21 17:10:27;;;;;;;;;;;;;;;28.87;21.80;98585.75;2619433;54;19950;-66
2022/08/21 17:12:59;;;;;;;;;;;;;;;28.74;22.13;98583.97;2619989;54;19954;-66
2022/08/21 17:15:31;;;;;;;;;;;;;;;28.68;22.60;98581.69;2619491;54;19946;-66
2022/08/21 17:18:00;;;;;;;;;;;;;;;28.56;22.33;98585.03;2619471;54;19938;-66